15:19
Airports
History
Links
Donate
Help keep this website running!
PayPal
Bitcoin
This page is community maintained. The information is intended for PC simulator navigation or reference.
Always use approved charts for navigation.
YKPN
KEMPTON
KEMPTON (YKPN)
Kempton, Tasmania, Australia (7030)
4
Lat/Lng:42° 32' 1.56" S / 147° 11' 45.2" E
-42.533767 / 147.19589
Elevation:683'ft / 208mMSL
ID / ICAO:YKPN
Runways:1
Longest:11-29
Dirt 435m / 1,426ft
Nearby Weather15:00 GMT 2018-01-16
Nearby weather at YMHB, Hobart located 26.3 nautical miles from YKPN
Altimeter: 30.15
Visibility: 6.2 statute miles
Wind: 7 knots (from 310°)
Temp: 11°c / 52°f
Humidity: 87.5%

METAR: YMHB 161500Z 31007KT CAVOK 11/09 Q1021

(Powered by phpweather)
Runway 11 / 29
Dimensions:434.5 x 7.9m 1426' x 26'ft
Surface:Dirt
Runway 11 [A]Runway 29 [B]
Heading:110°TH 290°TH
Lat:
Lng:
42° 31' 59.15"S
147° 11' 36.26"E
42° 32' 3.98"S
147° 11' 54.15"E
User Notes and Comments
42° 32' 1.56" S / 147° 11' 45.2" E
Distance To
Airport ID:
Nearby Airports
4 Jericho 13.7 NM
YJCO NNE 31°
4 Bothwell Gliding Club 14.4 NM
YBEL NW 322°
4 Fonthill 24.1 NM
YFON ENE 57°
(C) Cambridge 24.8 NM
YCBG SE 144°
4 LEMONT 26.1 NM
YLEM NE 55°
(C) Hobart 26.3 NM
YMHB ( WX ) SE 142°
4 WOODBURY 28.4 NM
YWOD NNE 26°
VFR Chart
Flight Planning at SkyVector.com